THY9634 LTAU-LTFJ
Flight info
| Callsign | THY9634 |
|---|---|
| Flight time | 0h 52m |
| Altitude | 38000 |
| Route | KISLA UL605 BADOX UW705 AZBUL UT329 TOKER |
| Aircraft | A320/M-SDE3FGHIRWY/LB1 |
Departure
| Time | 2026-04-23 22:23 |
|---|---|
| Airport | Kayseri Erkilet International Airport (LTAU) |
Arrival
| Time | 2026-04-23 23:16 |
|---|---|
| Airport | Istanbul Sabiha Gökçen International Airport (LTFJ) |
| Time | Latitude | Longitude | Altitude | Speed | Heading |
|---|---|---|---|---|---|
| 2026-04-23 22:07 | 38.76565 | 35.48044 | 3459 ft | 0 kts | 165° |
| 2026-04-23 22:18 | 38.76586 | 35.48037 | 3459 ft | 3 kts | 164° |
| 2026-04-23 22:18 | 38.76610 | 35.48024 | 3459 ft | 3 kts | 135° |
| 2026-04-23 22:19 | 38.76617 | 35.47995 | 3459 ft | 3 kts | 83° |
| 2026-04-23 22:19 | 38.76617 | 35.47987 | 3459 ft | 0 kts | 73° |
| 2026-04-23 22:21 | 38.76617 | 35.47988 | 3459 ft | 1 kts | 73° |
| 2026-04-23 22:21 | 38.76621 | 35.48024 | 3459 ft | 6 kts | 85° |
| 2026-04-23 22:21 | 38.76626 | 35.48088 | 3459 ft | 7 kts | 71° |
| 2026-04-23 22:21 | 38.76678 | 35.48109 | 3458 ft | 9 kts | 352° |
| 2026-04-23 22:22 | 38.76751 | 35.48095 | 3457 ft | 9 kts | 14° |
| 2026-04-23 22:22 | 38.76781 | 35.48181 | 3458 ft | 18 kts | 75° |
| 2026-04-23 22:22 | 38.76868 | 35.48697 | 3461 ft | 96 kts | 76° |
| 2026-04-23 22:22 | 38.77083 | 35.49825 | 3473 ft | 157 kts | 77° |
| 2026-04-23 22:23 | 38.77359 | 35.51233 | 3989 ft | 165 kts | 78° |
| 2026-04-23 22:23 | 38.77611 | 35.52673 | 4629 ft | 171 kts | 81° |
| 2026-04-23 22:23 | 38.77870 | 35.54186 | 5339 ft | 175 kts | 79° |
| 2026-04-23 22:23 | 38.78156 | 35.55744 | 5905 ft | 183 kts | 79° |
| 2026-04-23 22:24 | 38.78468 | 35.57354 | 6407 ft | 193 kts | 79° |
| 2026-04-23 22:24 | 38.78812 | 35.59064 | 6976 ft | 201 kts | 78° |
| 2026-04-23 22:24 | 38.79153 | 35.60863 | 7427 ft | 217 kts | 80° |
| 2026-04-23 22:24 | 38.79508 | 35.62828 | 7859 ft | 234 kts | 77° |
| 2026-04-23 22:25 | 38.80307 | 35.64800 | 8184 ft | 263 kts | 45° |
| 2026-04-23 22:25 | 38.81877 | 35.66096 | 8732 ft | 275 kts | 13° |
| 2026-04-23 22:25 | 38.83774 | 35.66211 | 9318 ft | 278 kts | 340° |
| 2026-04-23 22:25 | 38.85454 | 35.65086 | 9801 ft | 275 kts | 309° |
| 2026-04-23 22:26 | 38.86441 | 35.63012 | 10444 ft | 274 kts | 281° |
| 2026-04-23 22:26 | 38.86494 | 35.60569 | 11015 ft | 281 kts | 254° |
| 2026-04-23 22:26 | 38.85518 | 35.58336 | 11610 ft | 294 kts | 225° |
| 2026-04-23 22:26 | 38.83785 | 35.56901 | 12398 ft | 304 kts | 212° |
| 2026-04-23 22:27 | 38.81927 | 35.55555 | 13122 ft | 311 kts | 216° |
| 2026-04-23 22:27 | 38.80298 | 35.53751 | 13921 ft | 310 kts | 234° |
| 2026-04-23 22:27 | 38.79280 | 35.51349 | 14775 ft | 309 kts | 252° |
| 2026-04-23 22:27 | 38.78954 | 35.48597 | 15600 ft | 313 kts | 270° |
| 2026-04-23 22:28 | 38.79610 | 35.44875 | 16640 ft | 321 kts | 286° |
| 2026-04-23 22:28 | 38.81185 | 35.39452 | 18195 ft | 324 kts | 287° |
| 2026-04-23 22:28 | 38.82764 | 35.34004 | 19543 ft | 328 kts | 286° |
| 2026-04-23 22:28 | 38.84360 | 35.28429 | 20768 ft | 335 kts | 285° |
| 2026-04-23 22:29 | 38.85955 | 35.22816 | 21953 ft | 340 kts | 285° |
| 2026-04-23 22:29 | 38.87590 | 35.17057 | 23127 ft | 345 kts | 285° |
| 2026-04-23 22:29 | 38.89250 | 35.11202 | 24239 ft | 350 kts | 286° |
| 2026-04-23 22:29 | 38.90934 | 35.05245 | 25318 ft | 355 kts | 286° |
| 2026-04-23 22:30 | 38.92617 | 34.99284 | 26269 ft | 360 kts | 286° |
| 2026-04-23 22:30 | 38.94343 | 34.93154 | 27184 ft | 364 kts | 286° |
| 2026-04-23 22:30 | 38.96059 | 34.87061 | 28101 ft | 367 kts | 286° |
| 2026-04-23 22:30 | 38.97818 | 34.80801 | 28962 ft | 370 kts | 286° |
| 2026-04-23 22:31 | 38.99572 | 34.74543 | 29764 ft | 373 kts | 287° |
| 2026-04-23 22:31 | 39.01340 | 34.68190 | 30430 ft | 377 kts | 287° |
| 2026-04-23 22:31 | 39.03119 | 34.61811 | 31099 ft | 380 kts | 287° |
| 2026-04-23 22:31 | 39.04910 | 34.55395 | 32132 ft | 378 kts | 286° |
| 2026-04-23 22:32 | 39.06681 | 34.49005 | 33190 ft | 374 kts | 286° |
| 2026-04-23 22:32 | 39.08425 | 34.42700 | 34164 ft | 371 kts | 285° |
| 2026-04-23 22:32 | 39.10155 | 34.36504 | 34970 ft | 370 kts | 286° |
| 2026-04-23 22:32 | 39.12237 | 34.30400 | 35547 ft | 372 kts | 291° |
| 2026-04-23 22:33 | 39.14872 | 34.24491 | 36009 ft | 376 kts | 297° |
| 2026-04-23 22:33 | 39.17938 | 34.19046 | 36396 ft | 380 kts | 302° |
| 2026-04-23 22:33 | 39.21574 | 34.13858 | 36984 ft | 383 kts | 308° |
| 2026-04-23 22:33 | 39.25494 | 34.09006 | 37327 ft | 386 kts | 308° |
| 2026-04-23 22:34 | 39.29112 | 34.03783 | 37483 ft | 383 kts | 300° |
| 2026-04-23 22:34 | 39.31874 | 33.97889 | 37707 ft | 377 kts | 290° |
| 2026-04-23 22:34 | 39.33717 | 33.91392 | 37854 ft | 376 kts | 280° |
| 2026-04-23 22:34 | 39.34610 | 33.84705 | 37882 ft | 377 kts | 272° |
| 2026-04-23 22:35 | 39.34912 | 33.79682 | 37866 ft | 380 kts | 272° |
| 2026-04-23 22:35 | 39.35445 | 33.70929 | 37864 ft | 383 kts | 273° |
| 2026-04-23 22:36 | 39.36391 | 33.58974 | 37868 ft | 383 kts | 274° |
| 2026-04-23 22:36 | 39.36964 | 33.52011 | 37868 ft | 384 kts | 274° |
| 2026-04-23 22:37 | 39.37647 | 33.45050 | 37874 ft | 385 kts | 278° |
| 2026-04-23 22:37 | 39.39154 | 33.38273 | 37863 ft | 390 kts | 287° |
| 2026-04-23 22:38 | 39.41571 | 33.31863 | 37873 ft | 390 kts | 295° |
| 2026-04-23 22:38 | 39.44779 | 33.26107 | 37868 ft | 389 kts | 302° |
| 2026-04-23 22:39 | 39.48267 | 33.20657 | 37878 ft | 389 kts | 303° |
| 2026-04-23 22:39 | 39.51800 | 33.15163 | 37879 ft | 390 kts | 303° |
| 2026-04-23 22:40 | 39.55313 | 33.09701 | 37878 ft | 388 kts | 303° |
| 2026-04-23 22:41 | 39.60617 | 33.01437 | 37870 ft | 390 kts | 303° |
| 2026-04-23 22:41 | 39.64134 | 32.95952 | 37884 ft | 389 kts | 303° |
| 2026-04-23 22:42 | 39.67624 | 32.90496 | 37866 ft | 389 kts | 303° |
| 2026-04-23 22:42 | 39.71153 | 32.84970 | 37879 ft | 389 kts | 303° |
| 2026-04-23 22:43 | 39.74656 | 32.79478 | 37870 ft | 389 kts | 302° |
| 2026-04-23 22:43 | 39.78167 | 32.73954 | 37875 ft | 391 kts | 302° |
| 2026-04-23 22:44 | 39.81679 | 32.68426 | 37886 ft | 390 kts | 303° |
| 2026-04-23 22:44 | 39.85187 | 32.62896 | 37874 ft | 390 kts | 302° |
| 2026-04-23 22:45 | 39.88701 | 32.57339 | 37885 ft | 390 kts | 303° |
| 2026-04-23 22:45 | 39.92187 | 32.51821 | 37897 ft | 391 kts | 303° |
| 2026-04-23 22:46 | 39.95702 | 32.46244 | 37885 ft | 391 kts | 302° |
| 2026-04-23 22:46 | 39.98860 | 32.40400 | 37897 ft | 386 kts | 295° |
| 2026-04-23 22:47 | 40.01361 | 32.34139 | 37913 ft | 384 kts | 288° |
| 2026-04-23 22:47 | 40.03223 | 32.27405 | 37911 ft | 389 kts | 282° |
| 2026-04-23 22:48 | 40.04615 | 32.20420 | 37920 ft | 391 kts | 281° |
| 2026-04-23 22:48 | 40.05894 | 32.13818 | 37892 ft | 390 kts | 281° |
| 2026-04-23 22:49 | 40.07229 | 32.06899 | 37900 ft | 391 kts | 281° |
| 2026-04-23 22:49 | 40.07891 | 32.03444 | 37728 ft | 392 kts | 281° |
| 2026-04-23 22:49 | 40.08558 | 31.99975 | 37501 ft | 388 kts | 281° |
| 2026-04-23 22:49 | 40.09204 | 31.96599 | 37265 ft | 383 kts | 280° |
| 2026-04-23 22:50 | 40.09854 | 31.93212 | 37019 ft | 378 kts | 281° |
| 2026-04-23 22:50 | 40.10497 | 31.89869 | 36789 ft | 374 kts | 280° |
| 2026-04-23 22:50 | 40.11137 | 31.86598 | 36553 ft | 372 kts | 280° |
| 2026-04-23 22:50 | 40.11805 | 31.83286 | 36307 ft | 371 kts | 282° |
| 2026-04-23 22:51 | 40.12532 | 31.80082 | 36112 ft | 370 kts | 282° |
| 2026-04-23 22:51 | 40.13287 | 31.76810 | 35967 ft | 369 kts | 282° |
| 2026-04-23 22:51 | 40.14012 | 31.73639 | 35808 ft | 367 kts | 282° |
| 2026-04-23 22:51 | 40.14751 | 31.70394 | 35630 ft | 366 kts | 282° |
| 2026-04-23 22:52 | 40.15465 | 31.67241 | 35466 ft | 364 kts | 282° |
| 2026-04-23 22:52 | 40.16176 | 31.64075 | 35315 ft | 362 kts | 282° |
| 2026-04-23 22:52 | 40.16889 | 31.60894 | 35124 ft | 360 kts | 282° |
| 2026-04-23 22:52 | 40.17593 | 31.57748 | 34930 ft | 359 kts | 282° |
| 2026-04-23 22:53 | 40.18295 | 31.54590 | 34729 ft | 358 kts | 281° |
| 2026-04-23 22:53 | 40.18987 | 31.51485 | 34464 ft | 357 kts | 281° |
| 2026-04-23 22:53 | 40.19673 | 31.48393 | 34200 ft | 356 kts | 281° |
| 2026-04-23 22:53 | 40.20361 | 31.45296 | 33936 ft | 357 kts | 281° |
| 2026-04-23 22:54 | 40.21058 | 31.42116 | 33670 ft | 358 kts | 282° |
| 2026-04-23 22:54 | 40.21751 | 31.38998 | 33402 ft | 359 kts | 281° |
| 2026-04-23 22:54 | 40.22448 | 31.35835 | 33140 ft | 359 kts | 281° |
| 2026-04-23 22:54 | 40.23140 | 31.32670 | 32877 ft | 360 kts | 281° |
| 2026-04-23 22:55 | 40.23832 | 31.29521 | 32610 ft | 361 kts | 281° |
| 2026-04-23 22:55 | 40.24527 | 31.26349 | 32346 ft | 361 kts | 281° |
| 2026-04-23 22:55 | 40.25227 | 31.23158 | 32082 ft | 362 kts | 281° |
| 2026-04-23 22:55 | 40.25926 | 31.19972 | 31818 ft | 364 kts | 281° |
| 2026-04-23 22:56 | 40.26781 | 31.16033 | 31492 ft | 363 kts | 281° |
| 2026-04-23 22:56 | 40.30370 | 30.99582 | 30182 ft | 365 kts | 281° |
| 2026-04-23 22:56 | 40.39619 | 30.56556 | 26869 ft | 360 kts | 280° |
| 2026-04-23 22:56 | 40.42788 | 30.41504 | 25698 ft | 349 kts | 280° |
| 2026-04-23 22:57 | 40.43431 | 30.38453 | 25445 ft | 346 kts | 280° |
| 2026-04-23 22:57 | 40.44063 | 30.35425 | 25182 ft | 346 kts | 280° |
| 2026-04-23 22:57 | 40.44673 | 30.32496 | 24951 ft | 344 kts | 279° |
| 2026-04-23 22:57 | 40.45310 | 30.29453 | 24701 ft | 344 kts | 279° |
| 2026-04-23 22:58 | 40.45938 | 30.26446 | 24429 ft | 343 kts | 279° |
| 2026-04-23 22:58 | 40.46565 | 30.23440 | 24151 ft | 342 kts | 280° |
| 2026-04-23 22:58 | 40.47193 | 30.20435 | 23909 ft | 340 kts | 279° |
| 2026-04-23 22:58 | 40.47815 | 30.17433 | 23650 ft | 340 kts | 279° |
| 2026-04-23 22:59 | 40.48431 | 30.14465 | 23410 ft | 339 kts | 280° |
| 2026-04-23 22:59 | 40.49050 | 30.11485 | 23172 ft | 338 kts | 280° |
| 2026-04-23 22:59 | 40.49674 | 30.08474 | 22907 ft | 338 kts | 280° |
| 2026-04-23 22:59 | 40.50289 | 30.05519 | 22648 ft | 336 kts | 280° |
| 2026-04-23 23:00 | 40.50904 | 30.02543 | 22408 ft | 336 kts | 280° |
| 2026-04-23 23:00 | 40.51516 | 29.99586 | 22150 ft | 336 kts | 280° |
| 2026-04-23 23:00 | 40.52120 | 29.96644 | 21822 ft | 335 kts | 280° |
| 2026-04-23 23:00 | 40.52731 | 29.93691 | 21396 ft | 333 kts | 281° |
| 2026-04-23 23:01 | 40.53323 | 29.90799 | 20924 ft | 330 kts | 281° |
| 2026-04-23 23:01 | 40.53919 | 29.87904 | 20454 ft | 328 kts | 281° |
| 2026-04-23 23:01 | 40.54507 | 29.85034 | 19921 ft | 327 kts | 282° |
| 2026-04-23 23:01 | 40.55104 | 29.82123 | 19352 ft | 327 kts | 282° |
| 2026-04-23 23:02 | 40.55691 | 29.79250 | 18812 ft | 326 kts | 282° |
| 2026-04-23 23:02 | 40.56282 | 29.76374 | 18335 ft | 324 kts | 282° |
| 2026-04-23 23:02 | 40.56864 | 29.73506 | 17810 ft | 324 kts | 283° |
| 2026-04-23 23:02 | 40.57442 | 29.70653 | 17228 ft | 325 kts | 283° |
| 2026-04-23 23:03 | 40.58025 | 29.67795 | 16682 ft | 325 kts | 284° |
| 2026-04-23 23:03 | 40.58614 | 29.64898 | 16110 ft | 325 kts | 284° |
| 2026-04-23 23:03 | 40.59198 | 29.62022 | 15573 ft | 324 kts | 285° |
| 2026-04-23 23:03 | 40.59780 | 29.59162 | 15069 ft | 323 kts | 284° |
| 2026-04-23 23:04 | 40.60357 | 29.56318 | 14563 ft | 322 kts | 286° |
| 2026-04-23 23:04 | 40.60930 | 29.53479 | 14052 ft | 322 kts | 286° |
| 2026-04-23 23:04 | 40.61507 | 29.50626 | 13552 ft | 320 kts | 286° |
| 2026-04-23 23:04 | 40.62074 | 29.47820 | 13095 ft | 320 kts | 286° |
| 2026-04-23 23:05 | 40.62650 | 29.44964 | 12595 ft | 320 kts | 287° |
| 2026-04-23 23:05 | 40.63313 | 29.42218 | 11986 ft | 322 kts | 293° |
| 2026-04-23 23:05 | 40.64227 | 29.39494 | 11002 ft | 326 kts | 296° |
| 2026-04-23 23:05 | 40.65181 | 29.36801 | 10184 ft | 325 kts | 296° |
| 2026-04-23 23:06 | 40.66111 | 29.34141 | 9509 ft | 313 kts | 296° |
| 2026-04-23 23:06 | 40.66988 | 29.31576 | 8786 ft | 302 kts | 295° |
| 2026-04-23 23:06 | 40.67823 | 29.29101 | 8099 ft | 293 kts | 295° |
| 2026-04-23 23:06 | 40.68632 | 29.26687 | 7421 ft | 284 kts | 295° |
| 2026-04-23 23:07 | 40.69405 | 29.24366 | 6784 ft | 276 kts | 296° |
| 2026-04-23 23:07 | 40.70161 | 29.22092 | 6125 ft | 270 kts | 296° |
| 2026-04-23 23:07 | 40.70906 | 29.19852 | 5586 ft | 263 kts | 296° |
| 2026-04-23 23:07 | 40.71630 | 29.17668 | 5257 ft | 258 kts | 296° |
| 2026-04-23 23:08 | 40.72340 | 29.15529 | 4953 ft | 254 kts | 296° |
| 2026-04-23 23:08 | 40.73031 | 29.13443 | 4661 ft | 241 kts | 296° |
| 2026-04-23 23:08 | 40.73678 | 29.11479 | 4403 ft | 232 kts | 296° |
| 2026-04-23 23:08 | 40.74307 | 29.09573 | 4157 ft | 226 kts | 296° |
| 2026-04-23 23:09 | 40.74916 | 29.07729 | 4095 ft | 212 kts | 296° |
| 2026-04-23 23:09 | 40.75496 | 29.05996 | 4056 ft | 199 kts | 301° |
| 2026-04-23 23:09 | 40.76375 | 29.04729 | 4070 ft | 179 kts | 332° |
| 2026-04-23 23:09 | 40.77498 | 29.04304 | 3965 ft | 162 kts | 0° |
| 2026-04-23 23:10 | 40.78553 | 29.04574 | 3766 ft | 152 kts | 25° |
| 2026-04-23 23:10 | 40.79377 | 29.05355 | 3560 ft | 143 kts | 47° |
| 2026-04-23 23:10 | 40.80008 | 29.06331 | 3404 ft | 138 kts | 46° |
| 2026-04-23 23:10 | 40.80659 | 29.07263 | 3267 ft | 138 kts | 49° |
| 2026-04-23 23:11 | 40.81238 | 29.08266 | 3166 ft | 136 kts | 54° |
| 2026-04-23 23:11 | 40.81745 | 29.09326 | 3077 ft | 137 kts | 57° |
| 2026-04-23 23:11 | 40.83661 | 29.13770 | 2955 ft | 135 kts | 62° |
| 2026-04-23 23:11 | 40.84044 | 29.14901 | 2987 ft | 136 kts | 65° |
| 2026-04-23 23:12 | 40.84410 | 29.16041 | 2877 ft | 135 kts | 65° |
| 2026-04-23 23:12 | 40.84782 | 29.17134 | 2665 ft | 126 kts | 64° |
| 2026-04-23 23:12 | 40.85155 | 29.18176 | 2466 ft | 124 kts | 63° |
| 2026-04-23 23:12 | 40.85529 | 29.19197 | 2277 ft | 124 kts | 62° |
| 2026-04-23 23:13 | 40.85906 | 29.20220 | 2083 ft | 123 kts | 63° |
| 2026-04-23 23:13 | 40.86279 | 29.21232 | 1896 ft | 123 kts | 63° |
| 2026-04-23 23:13 | 40.86654 | 29.22245 | 1699 ft | 123 kts | 62° |
| 2026-04-23 23:13 | 40.87030 | 29.23260 | 1507 ft | 122 kts | 62° |
| 2026-04-23 23:14 | 40.87400 | 29.24261 | 1330 ft | 122 kts | 63° |
| 2026-04-23 23:14 | 40.87755 | 29.25285 | 1142 ft | 122 kts | 59° |
| 2026-04-23 23:14 | 40.88141 | 29.26282 | 923 ft | 122 kts | 56° |
| 2026-04-23 23:14 | 40.88515 | 29.27284 | 746 ft | 122 kts | 59° |
| 2026-04-23 23:15 | 40.88885 | 29.28281 | 562 ft | 121 kts | 58° |
| 2026-04-23 23:15 | 40.89252 | 29.29282 | 381 ft | 120 kts | 58° |
| 2026-04-23 23:15 | 40.89619 | 29.30262 | 322 ft | 109 kts | 64° |
| 2026-04-23 23:15 | 40.89871 | 29.30973 | 321 ft | 61 kts | 63° |
| 2026-04-23 23:16 | 40.90036 | 29.31264 | 321 ft | 23 kts | 32° |
| 2026-04-23 23:16 | 40.90168 | 29.31381 | 321 ft | 22 kts | 33° |
| 2026-04-23 23:16 | 40.90292 | 29.31496 | 321 ft | 20 kts | 11° |
| 2026-04-23 23:16 | 40.90420 | 29.31437 | 321 ft | 17 kts | 348° |
| 2026-04-23 23:17 | 40.90496 | 29.31541 | 321 ft | 16 kts | 63° |
| 2026-04-23 23:17 | 40.90548 | 29.31678 | 321 ft | 16 kts | 63° |
| 2026-04-23 23:17 | 40.90594 | 29.31760 | 321 ft | 6 kts | 359° |
| 2026-04-23 23:17 | 40.90635 | 29.31736 | 321 ft | 2 kts | 332° |
| 2026-04-23 23:18 | 40.90637 | 29.31734 | 321 ft | 0 kts | 332° |